Beauregard Regional Airport
KDRI : now visible

Aeroporto :











RITROVATECI SU...

 
LOGIN :

Iscrizione | Disclaimer

   EN    FR    IT 

 









Sommario :    VFR   VFR Marginale   IFR   IFR Intensivo   IFR Molto Intensivo
Visibilità : 
Base nubi : 
>= 8 km
>= 3000ft
5 / 8 km
1000 / 3000 ft
1500m / 5 km
500 / 1000 ft
800 / 1500m
200 / 500 ft
< 800m
< 200 ft
Simboli :   Temporali  Nebbia  Neve Forte  Precipitazioni Forti  Vento > 20 kt






- Altitudine del aeroporto : 202 ft


KDRI - Beauregard Regional

ULTIMO METAR :
  • 072135Z AUTO 00000KT 10SM CLR 18/07 A3022 RMK AO2 T01820068

METARs OBSOLETI :
  • 072115Z AUTO 00000KT 10SM CLR 18/07 A3023 RMK AO2 T01840068
  • 072055Z AUTO 00000KT 10SM CLR 18/07 A3024 RMK AO2 T01830068
  • 072035Z AUTO 00000KT 10SM CLR 19/07 A3024 RMK AO2 T01870071
  • 072015Z AUTO 00000KT 10SM CLR 18/07 A3024 RMK AO2 T01750072
  • 071955Z AUTO 35005KT 10SM CLR 19/07 A3024 RMK AO2 T01880073
  • 071935Z AUTO 01004KT 10SM CLR 19/07 A3024 RMK AO2 T01850066
  • 071915Z AUTO 00000KT 10SM CLR 18/07 A3025 RMK AO2 T01780070
  • 071855Z AUTO 00000KT 10SM CLR 18/08 A3026 RMK AO2 T01770078

TAF N/A



MetMap, La meteo Aeronautica in un colpo d'occhio ! - Copyright ORBIFLY Dicembre 2007 - Disclaimer

ORBIFLY MET'MAP TEAM :

Programmazione e sviluppo : Alexandra Zaïnal
Concezione : Baudouin d'Aumeries
Aiuto per la programmazione : Marc-Olivier Méhu
Supporto tecnico e logistico : Manuel Goepfert
Aiuto per la traduzione : Arnaldo La Scala

Contatto : metmap@orbifly.com




FONTI E CREDITI :

   NOAA       Earth
Advisory